PWSweather.com
Personal Weather Stations
Station Observations
KMIEASTT1
Tawas Bay, East Tawas, MI 48730

Tawas BayEast Tawas, MI 48730

Lat: 44.28, Lon: -83.48

Elevation: 600

Station Type: Davis VantagePro

http://www.tawasbayweather.com

High Low Average
Temperature 81.2°F27.3°F 69.4°F20.8°F 74.6°F23.7°F
Dew Point 72.8°F22.7°F 66.5°F19.2°F 70.1°F21.2°F
Winds 2.0 mph -3.2 mph - Calm Calm 0.1 mph 0.2 mph
Wind Gusts 7.0 mph11.3 mph -- 0.8 mph1.3 mph
Humidity 97% 68% 86%
Pressure 29.92 in1013.20 in 29.86 in1011.20 in -
Precipitation 0.12 in3.00 in - -
Hour Temp Dew Point Humidity Winds Wind Gusts Pressure Precip Precip Rate Daily Precip Total
12:00 AM 72.7°F22.6°C 71.5°F21.9°C 96% Calm Calm -- 29.90 in1012.5 mb 0.00 in0.0 mm 0.00 in0.0 mm 0.00 in0.0 mm
12:15 AM 72.8°F22.7°C 71.6°F22.0°C 96% Calm Calm -- 29.90 in1012.5 mb 0.00 in0.0 mm 0.00 in0.0 mm 0.00 in0.0 mm
12:30 AM 72.9°F22.7°C 71.7°F22.1°C 96% Calm Calm -- 29.90 in1012.5 mb 0.00 in0.0 mm 0.00 in0.0 mm 0.00 in0.0 mm
12:45 AM 72.8°F22.7°C 71.6°F22.0°C 96% Calm Calm -- 29.90 in1012.5 mb 0.00 in0.0 mm 0.00 in0.0 mm 0.00 in0.0 mm
01:00 AM 72.8°F22.7°C 71.6°F22.0°C 96% Calm Calm -- 29.90 in1012.5 mb 0.00 in0.0 mm 0.00 in0.0 mm 0.00 in0.0 mm
01:15 AM 72.7°F22.6°C 71.5°F21.9°C 96% Calm Calm -- 29.89 in1012.2 mb 0.00 in0.0 mm 0.00 in0.0 mm 0.00 in0.0 mm
01:30 AM 72.6°F22.6°C 71.4°F21.9°C 96% Calm Calm -- 29.89 in1012.2 mb 0.00 in0.0 mm 0.00 in0.0 mm 0.00 in0.0 mm
01:45 AM 72.7°F22.6°C 71.5°F21.9°C 96% Calm Calm -- 29.89 in1012.2 mb 0.00 in0.0 mm 0.00 in0.0 mm 0.00 in0.0 mm
02:00 AM 72.6°F22.6°C 71.4°F21.9°C 96% Calm Calm -- 29.88 in1011.9 mb 0.02 in0.5 mm 0.03 in0.8 mm 0.02 in0.5 mm
02:15 AM 72.5°F22.5°C 71.3°F21.8°C 96% Calm Calm -- 29.87 in1011.5 mb 0.02 in0.5 mm 0.00 in0.0 mm 0.02 in0.5 mm
02:30 AM 72.2°F22.3°C 71.0°F21.7°C 96% Calm Calm -- 29.87 in1011.5 mb 0.02 in0.5 mm 0.00 in0.0 mm 0.02 in0.5 mm
02:45 AM 72.1°F22.3°C 70.9°F21.6°C 96% Calm Calm -- 29.87 in1011.5 mb 0.02 in0.5 mm 0.00 in0.0 mm 0.02 in0.5 mm
03:00 AM 71.9°F22.2°C 71.0°F21.7°C 97% Calm Calm -- 29.87 in1011.5 mb 0.00 in0.0 mm 0.00 in0.0 mm 0.02 in0.5 mm
03:15 AM 71.8°F22.1°C 70.9°F21.6°C 97% Calm Calm -- 29.87 in1011.5 mb 0.00 in0.0 mm 0.00 in0.0 mm 0.02 in0.5 mm
03:30 AM 71.8°F22.1°C 70.9°F21.6°C 97% Calm Calm -- 29.86 in1011.2 mb 0.00 in0.0 mm 0.00 in0.0 mm 0.02 in0.5 mm
03:45 AM 71.6°F22.0°C 70.7°F21.5°C 97% Calm Calm -- 29.86 in1011.2 mb 0.00 in0.0 mm 0.00 in0.0 mm 0.02 in0.5 mm
04:00 AM 71.6°F22.0°C 70.7°F21.5°C 97% Calm Calm -- 29.86 in1011.2 mb 0.00 in0.0 mm 0.00 in0.0 mm 0.02 in0.5 mm
04:15 AM 71.4°F21.9°C 70.5°F21.4°C 97% Calm Calm -- 29.86 in1011.2 mb 0.00 in0.0 mm 0.00 in0.0 mm 0.02 in0.5 mm
04:30 AM 71.3°F21.8°C 70.4°F21.3°C 97% Calm Calm -- 29.86 in1011.2 mb 0.00 in0.0 mm 0.00 in0.0 mm 0.02 in0.5 mm
04:45 AM 71.3°F21.8°C 70.4°F21.3°C 97% Calm Calm -- 29.87 in1011.5 mb 0.00 in0.0 mm 0.00 in0.0 mm 0.02 in0.5 mm
05:00 AM 71.0°F21.7°C 70.1°F21.2°C 97% Calm Calm -- 29.87 in1011.5 mb 0.00 in0.0 mm 0.00 in0.0 mm 0.02 in0.5 mm
05:15 AM 69.7°F20.9°C 68.5°F20.3°C 96% Calm Calm 7.0 mph11.3 kmh 29.87 in1011.5 mb 0.00 in0.0 mm 0.00 in0.0 mm 0.02 in0.5 mm
05:30 AM 69.5°F20.8°C 68.3°F20.2°C 96% 1.0 mph E1.6 kmh E 4.0 mph6.4 kmh 29.87 in1011.5 mb 0.00 in0.0 mm 0.00 in0.0 mm 0.02 in0.5 mm
05:45 AM 69.4°F20.8°C 68.2°F20.1°C 96% Calm Calm -- 29.87 in1011.5 mb 0.00 in0.0 mm 0.00 in0.0 mm 0.02 in0.5 mm
06:00 AM 69.4°F20.8°C 68.2°F20.1°C 96% Calm Calm 3.0 mph4.8 kmh 29.88 in1011.9 mb 0.01 in0.3 mm 0.01 in0.3 mm 0.03 in0.8 mm
06:15 AM 69.6°F20.9°C 68.4°F20.2°C 96% Calm Calm 1.0 mph1.6 kmh 29.88 in1011.9 mb 0.01 in0.3 mm 0.00 in0.0 mm 0.03 in0.8 mm
06:30 AM 69.7°F20.9°C 68.8°F20.4°C 97% Calm Calm -- 29.89 in1012.2 mb 0.01 in0.3 mm 0.00 in0.0 mm 0.03 in0.8 mm
06:45 AM 69.7°F20.9°C 68.8°F20.4°C 97% Calm Calm -- 29.89 in1012.2 mb 0.01 in0.3 mm 0.00 in0.0 mm 0.03 in0.8 mm
07:00 AM 69.8°F21.0°C 68.9°F20.5°C 97% Calm Calm -- 29.89 in1012.2 mb 0.00 in0.0 mm 0.00 in0.0 mm 0.03 in0.8 mm
07:15 AM 70.0°F21.1°C 69.1°F20.6°C 97% Calm Calm -- 29.89 in1012.2 mb 0.00 in0.0 mm 0.00 in0.0 mm 0.03 in0.8 mm
07:30 AM 70.2°F21.2°C 69.3°F20.7°C 97% Calm Calm 3.0 mph4.8 kmh 29.89 in1012.2 mb 0.00 in0.0 mm 0.00 in0.0 mm 0.03 in0.8 mm
07:45 AM 70.4°F21.3°C 69.5°F20.8°C 97% Calm Calm 1.0 mph1.6 kmh 29.89 in1012.2 mb 0.00 in0.0 mm 0.00 in0.0 mm 0.03 in0.8 mm
08:00 AM 70.8°F21.6°C 69.9°F21.1°C 97% Calm Calm 1.0 mph1.6 kmh 29.89 in1012.2 mb 0.00 in0.0 mm 0.00 in0.0 mm 0.03 in0.8 mm
08:15 AM 71.2°F21.8°C 70.3°F21.3°C 97% Calm Calm 1.0 mph1.6 kmh 29.90 in1012.5 mb 0.00 in0.0 mm 0.00 in0.0 mm 0.03 in0.8 mm
08:30 AM 71.3°F21.8°C 70.4°F21.3°C 97% 1.0 mph NE1.6 kmh NE 3.0 mph4.8 kmh 29.89 in1012.2 mb 0.00 in0.0 mm 0.00 in0.0 mm 0.03 in0.8 mm
08:45 AM 71.5°F21.9°C 70.6°F21.4°C 97% Calm Calm 4.0 mph6.4 kmh 29.88 in1011.9 mb 0.00 in0.0 mm 0.00 in0.0 mm 0.03 in0.8 mm
09:00 AM 72.0°F22.2°C 71.1°F21.7°C 97% Calm Calm 2.0 mph3.2 kmh 29.89 in1012.2 mb 0.00 in0.0 mm 0.00 in0.0 mm 0.03 in0.8 mm
09:15 AM 72.7°F22.6°C 71.5°F21.9°C 96% 1.0 mph NE1.6 kmh NE 2.0 mph3.2 kmh 29.90 in1012.5 mb 0.00 in0.0 mm 0.00 in0.0 mm 0.03 in0.8 mm
09:30 AM 72.7°F22.6°C 71.5°F21.9°C 96% Calm Calm 1.0 mph1.6 kmh 29.91 in1012.9 mb 0.00 in0.0 mm 0.00 in0.0 mm 0.03 in0.8 mm
09:45 AM 73.4°F23.0°C 71.9°F22.2°C 95% Calm Calm 1.0 mph1.6 kmh 29.90 in1012.5 mb 0.00 in0.0 mm 0.00 in0.0 mm 0.03 in0.8 mm
10:00 AM 74.0°F23.3°C 71.9°F22.2°C 93% Calm Calm 2.0 mph3.2 kmh 29.90 in1012.5 mb 0.00 in0.0 mm 0.00 in0.0 mm 0.03 in0.8 mm
10:15 AM 74.4°F23.6°C 71.9°F22.2°C 92% Calm Calm 2.0 mph3.2 kmh 29.90 in1012.5 mb 0.00 in0.0 mm 0.00 in0.0 mm 0.03 in0.8 mm
10:30 AM 74.7°F23.7°C 72.2°F22.3°C 92% Calm Calm -- 29.90 in1012.5 mb 0.00 in0.0 mm 0.00 in0.0 mm 0.03 in0.8 mm
10:45 AM 75.6°F24.2°C 72.8°F22.7°C 91% 1.0 mph N1.6 kmh N 1.0 mph1.6 kmh 29.90 in1012.5 mb 0.00 in0.0 mm 0.00 in0.0 mm 0.03 in0.8 mm
11:00 AM 75.9°F24.4°C 72.4°F22.4°C 89% Calm Calm 2.0 mph3.2 kmh 29.90 in1012.5 mb 0.00 in0.0 mm 0.00 in0.0 mm 0.03 in0.8 mm
11:15 AM 76.2°F24.6°C 72.7°F22.6°C 89% Calm Calm 1.0 mph1.6 kmh 29.89 in1012.2 mb 0.00 in0.0 mm 0.00 in0.0 mm 0.03 in0.8 mm
11:30 AM 76.6°F24.8°C 72.5°F22.5°C 87% 1.0 mph ENE1.6 kmh ENE 2.0 mph3.2 kmh 29.89 in1012.2 mb 0.00 in0.0 mm 0.00 in0.0 mm 0.03 in0.8 mm
11:45 AM 77.7°F25.4°C 72.5°F22.5°C 84% Calm Calm 2.0 mph3.2 kmh 29.89 in1012.2 mb 0.00 in0.0 mm 0.00 in0.0 mm 0.03 in0.8 mm
12:00 PM 78.4°F25.8°C 72.5°F22.5°C 82% Calm Calm 3.0 mph4.8 kmh 29.89 in1012.2 mb 0.00 in0.0 mm 0.00 in0.0 mm 0.03 in0.8 mm
12:15 PM 79.4°F26.3°C 72.7°F22.6°C 80% 2.0 mph N3.2 kmh N 3.0 mph4.8 kmh 29.89 in1012.2 mb 0.00 in0.0 mm 0.00 in0.0 mm 0.03 in0.8 mm
12:30 PM 79.1°F26.2°C 72.4°F22.4°C 80% Calm Calm 3.0 mph4.8 kmh 29.89 in1012.2 mb 0.00 in0.0 mm 0.00 in0.0 mm 0.03 in0.8 mm
12:45 PM 79.3°F26.3°C 72.2°F22.3°C 79% 2.0 mph NNW3.2 kmh NNW 3.0 mph4.8 kmh 29.89 in1012.2 mb 0.00 in0.0 mm 0.00 in0.0 mm 0.03 in0.8 mm
01:00 PM 79.5°F26.4°C 71.7°F22.1°C 77% Calm Calm 2.0 mph3.2 kmh 29.89 in1012.2 mb 0.00 in0.0 mm 0.00 in0.0 mm 0.03 in0.8 mm
01:15 PM 80.0°F26.7°C 72.2°F22.3°C 77% Calm Calm 2.0 mph3.2 kmh 29.89 in1012.2 mb 0.00 in0.0 mm 0.00 in0.0 mm 0.03 in0.8 mm
01:30 PM 80.2°F26.8°C 71.6°F22.0°C 75% Calm Calm -- 29.89 in1012.2 mb 0.00 in0.0 mm 0.00 in0.0 mm 0.03 in0.8 mm
01:45 PM 80.1°F26.7°C 71.1°F21.7°C 74% Calm Calm -- 29.89 in1012.2 mb 0.00 in0.0 mm 0.00 in0.0 mm 0.03 in0.8 mm
02:00 PM 80.6°F27.0°C 71.2°F21.8°C 73% Calm Calm -- 29.89 in1012.2 mb 0.00 in0.0 mm 0.00 in0.0 mm 0.03 in0.8 mm
02:15 PM 81.1°F27.3°C 71.2°F21.8°C 72% Calm Calm -- 29.89 in1012.2 mb 0.00 in0.0 mm 0.00 in0.0 mm 0.03 in0.8 mm
02:30 PM 81.1°F27.3°C 71.2°F21.8°C 72% 1.0 mph N1.6 kmh N 3.0 mph4.8 kmh 29.88 in1011.9 mb 0.00 in0.0 mm 0.00 in0.0 mm 0.03 in0.8 mm
02:45 PM 81.2°F27.3°C 71.3°F21.8°C 72% Calm Calm 4.0 mph6.4 kmh 29.88 in1011.9 mb 0.00 in0.0 mm 0.00 in0.0 mm 0.03 in0.8 mm
03:00 PM 81.2°F27.3°C 71.7°F22.1°C 73% Calm Calm -- 29.88 in1011.9 mb 0.00 in0.0 mm 0.00 in0.0 mm 0.03 in0.8 mm
03:15 PM 80.9°F27.2°C 69.8°F21.0°C 69% Calm Calm 2.0 mph3.2 kmh 29.88 in1011.9 mb 0.00 in0.0 mm 0.00 in0.0 mm 0.03 in0.8 mm
03:30 PM 80.9°F27.2°C 70.2°F21.2°C 70% Calm Calm -- 29.88 in1011.9 mb 0.00 in0.0 mm 0.00 in0.0 mm 0.03 in0.8 mm
03:45 PM 81.1°F27.3°C 70.0°F21.1°C 69% Calm Calm -- 29.88 in1011.9 mb 0.00 in0.0 mm 0.00 in0.0 mm 0.03 in0.8 mm
04:00 PM 81.1°F27.3°C 70.4°F21.3°C 70% Calm Calm -- 29.89 in1012.2 mb 0.00 in0.0 mm 0.00 in0.0 mm 0.03 in0.8 mm
04:15 PM 80.7°F27.1°C 69.2°F20.7°C 68% Calm Calm 1.0 mph1.6 kmh 29.88 in1011.9 mb 0.00 in0.0 mm 0.00 in0.0 mm 0.03 in0.8 mm
04:30 PM 80.6°F27.0°C 69.5°F20.8°C 69% Calm Calm -- 29.89 in1012.2 mb 0.00 in0.0 mm 0.00 in0.0 mm 0.03 in0.8 mm
04:45 PM 80.7°F27.1°C 69.6°F20.9°C 69% Calm Calm 1.0 mph1.6 kmh 29.89 in1012.2 mb 0.00 in0.0 mm 0.00 in0.0 mm 0.03 in0.8 mm
05:00 PM 80.4°F26.9°C 68.9°F20.5°C 68% Calm Calm 1.0 mph1.6 kmh 29.89 in1012.2 mb 0.00 in0.0 mm 0.00 in0.0 mm 0.03 in0.8 mm
05:15 PM 80.2°F26.8°C 69.1°F20.6°C 69% Calm Calm -- 29.88 in1011.9 mb 0.00 in0.0 mm 0.00 in0.0 mm 0.03 in0.8 mm
05:30 PM 79.6°F26.4°C 68.5°F20.3°C 69% Calm Calm -- 29.88 in1011.9 mb 0.00 in0.0 mm 0.00 in0.0 mm 0.03 in0.8 mm
05:45 PM 79.2°F26.2°C 69.0°F20.6°C 71% Calm Calm -- 29.88 in1011.9 mb 0.00 in0.0 mm 0.00 in0.0 mm 0.03 in0.8 mm
06:00 PM 78.7°F25.9°C 68.9°F20.5°C 72% Calm Calm -- 29.89 in1012.2 mb 0.00 in0.0 mm 0.00 in0.0 mm 0.03 in0.8 mm
06:15 PM 78.3°F25.7°C 69.3°F20.7°C 74% Calm Calm -- 29.89 in1012.2 mb 0.00 in0.0 mm 0.00 in0.0 mm 0.03 in0.8 mm
06:38 PM 77.8°F25.4°C 69.3°F20.7°C 75% Calm Calm -- 29.89 in1012.2 mb 0.00 in0.0 mm 0.00 in0.0 mm 0.03 in0.8 mm
06:45 PM 77.6°F25.3°C 69.1°F20.6°C 75% Calm Calm -- 29.89 in1012.2 mb 0.00 in0.0 mm 0.00 in0.0 mm 0.03 in0.8 mm
07:02 PM 77.2°F25.1°C 69.1°F20.6°C 76% Calm Calm -- 29.89 in1012.2 mb 0.00 in0.0 mm 0.00 in0.0 mm 0.03 in0.8 mm
07:15 PM 77.1°F25.1°C 69.7°F20.9°C 78% Calm Calm -- 29.89 in1012.2 mb 0.00 in0.0 mm 0.00 in0.0 mm 0.03 in0.8 mm
07:30 PM 76.6°F24.8°C 69.2°F20.7°C 78% Calm Calm -- 29.89 in1012.2 mb 0.00 in0.0 mm 0.00 in0.0 mm 0.03 in0.8 mm
07:45 PM 76.1°F24.5°C 68.8°F20.4°C 78% Calm Calm -- 29.89 in1012.2 mb 0.00 in0.0 mm 0.00 in0.0 mm 0.03 in0.8 mm
08:00 PM 75.7°F24.3°C 68.7°F20.4°C 79% Calm Calm -- 29.90 in1012.5 mb 0.00 in0.0 mm 0.00 in0.0 mm 0.03 in0.8 mm
08:15 PM 75.2°F24.0°C 68.3°F20.2°C 79% Calm Calm -- 29.90 in1012.5 mb 0.00 in0.0 mm 0.00 in0.0 mm 0.03 in0.8 mm
08:30 PM 74.7°F23.7°C 68.5°F20.3°C 81% Calm Calm -- 29.90 in1012.5 mb 0.00 in0.0 mm 0.00 in0.0 mm 0.03 in0.8 mm
08:45 PM 74.2°F23.4°C 68.4°F20.2°C 82% Calm Calm -- 29.90 in1012.5 mb 0.00 in0.0 mm 0.00 in0.0 mm 0.03 in0.8 mm
09:00 PM 73.6°F23.1°C 68.1°F20.1°C 83% Calm Calm -- 29.90 in1012.5 mb 0.00 in0.0 mm 0.00 in0.0 mm 0.03 in0.8 mm
09:15 PM 73.1°F22.8°C 68.3°F20.2°C 85% Calm Calm -- 29.90 in1012.5 mb 0.00 in0.0 mm 0.00 in0.0 mm 0.03 in0.8 mm
09:30 PM 72.5°F22.5°C 68.1°F20.1°C 86% Calm Calm -- 29.91 in1012.9 mb 0.00 in0.0 mm 0.00 in0.0 mm 0.03 in0.8 mm
09:45 PM 71.9°F22.2°C 67.5°F19.7°C 86% Calm Calm -- 29.91 in1012.9 mb 0.00 in0.0 mm 0.00 in0.0 mm 0.03 in0.8 mm
10:00 PM 71.5°F21.9°C 67.4°F19.7°C 87% Calm Calm -- 29.91 in1012.9 mb 0.00 in0.0 mm 0.00 in0.0 mm 0.03 in0.8 mm
10:15 PM 71.1°F21.7°C 67.0°F19.4°C 87% Calm Calm -- 29.91 in1012.9 mb 0.00 in0.0 mm 0.00 in0.0 mm 0.03 in0.8 mm
10:30 PM 70.8°F21.6°C 67.1°F19.5°C 88% Calm Calm -- 29.92 in1013.2 mb 0.00 in0.0 mm 0.00 in0.0 mm 0.03 in0.8 mm
10:45 PM 70.5°F21.4°C 67.1°F19.5°C 89% Calm Calm -- 29.92 in1013.2 mb 0.00 in0.0 mm 0.00 in0.0 mm 0.03 in0.8 mm
11:00 PM 70.2°F21.2°C 66.8°F19.3°C 89% Calm Calm -- 29.92 in1013.2 mb 0.00 in0.0 mm 0.00 in0.0 mm 0.03 in0.8 mm
11:15 PM 69.9°F21.1°C 66.8°F19.3°C 90% Calm Calm -- 29.91 in1012.9 mb 0.00 in0.0 mm 0.00 in0.0 mm 0.03 in0.8 mm
11:30 PM 69.6°F20.9°C 66.5°F19.2°C 90% Calm Calm -- 29.91 in1012.9 mb 0.00 in0.0 mm 0.00 in0.0 mm 0.03 in0.8 mm
11:45 PM 69.4°F20.8°C 66.7°F19.3°C 91% Calm Calm -- 29.91 in1012.9 mb 0.00 in0.0 mm 0.00 in0.0 mm 0.03 in0.8 mm